SARC/CNQ METAR and TAF weather

Enter ICAO airport designator
Station Type Date Time Source
SARC METAR 2022/11/27 08:00 UTC NOAA

SARC 270800Z 14006KT CAVOK 19/18 Q1012


Station Type Date Time Source
SARC Decoded METAR 2022/11/27 08:00 UTC NOAA

Corrientes Aero., Argentina (SARC) 27-27S 058-46W 62M
Nov 27, 2022 - 03:00 AM EST / 2022.11.27 0800 UTC
Wind: from the SE (140 degrees) at 7 MPH (6 KT):0
Visibility: greater than 7 mile(s):0
Temperature: 66 F (19 C)
Dew Point: 64 F (18 C)
Relative Humidity: 93%
Pressure (altimeter): 29.88 in. Hg (1012 hPa)
ob: SARC 270800Z 14006KT CAVOK 19/18 Q1012
cycle: 8

Station Type Date Time Source
SARC TAF 2022/10/25 06:33 UTC NOAA

TAF TAF SARC 250500Z 2506/2606 07010KT CAVOK TX33/2519Z TN17/2510Z

Example: see airport list